Time;durP1;ratioP1;P1;durP2;ratioP2;P2;SDS_P1;SDS_P2;PMS_P1;PMS_P2;Temp;Humidity;BMP_temperature;BMP_pressure;BME280_temperature;BME280_humidity;BME280_pressure;Samples;Min_cycle;Max_cycle;Signal;HPM_P1;HPM_P2
2023/06/14 00:02:25;;;;;;;15.35;9.95;;;;;;;;;;5087602;28;20044;-61
2023/06/14 00:04:52;;;;;;;9.77;7.60;;;;;;;;;;5087314;28;20028;-62
2023/06/14 00:07:19;;;;;;;14.27;9.98;;;;;;;;;;5087284;28;20112;-61
2023/06/14 00:09:46;;;;;;;19.42;10.07;;;;;;;;;;5092805;28;20078;-61
2023/06/14 00:12:13;;;;;;;11.70;8.60;;;;;;;;;;5092222;28;20020;-60
2023/06/14 00:14:40;;;;;;;10.88;8.13;;;;;;;;;;5091585;28;20031;-60
2023/06/14 00:17:07;;;;;;;19.60;10.02;;;;;;;;;;5092049;28;20024;-60
2023/06/14 00:19:35;;;;;;;20.85;9.10;;;;;;;;;;5102851;28;20034;-60
2023/06/14 00:22:03;;;;;;;22.30;10.80;;;;;;;;;;5108323;28;20028;-61
2023/06/14 00:24:29;;;;;;;14.93;10.18;;;;;;;;;;5107672;28;20030;-60
2023/06/14 00:26:56;;;;;;;18.15;9.65;;;;;;;;;;5107488;28;20443;-60
2023/06/14 00:29:23;;;;;;;13.70;9.73;;;;;;;;;;5100270;28;20024;-61
2023/06/14 00:31:50;;;;;;;14.90;9.43;;;;;;;;;;5089933;28;20490;-60
2023/06/14 00:34:16;;;;;;;19.65;10.88;;;;;;;;;;5091730;28;20024;-60
2023/06/14 00:36:43;;;;;;;13.63;9.45;;;;;;;;;;5091986;28;20032;-60
2023/06/14 00:39:10;;;;;;;15.10;9.88;;;;;;;;;;5092030;28;20023;-60
2023/06/14 00:41:37;;;;;;;16.45;9.55;;;;;;;;;;5091804;28;20059;-61
2023/06/14 00:44:04;;;;;;;14.45;9.50;;;;;;;;;;5088925;28;20514;-60
2023/06/14 00:46:31;;;;;;;12.13;9.73;;;;;;;;;;5069085;28;20513;-60
2023/06/14 00:49:00;;;;;;;13.65;8.63;;;;;;;;;;5088334;28;20490;-60
2023/06/14 00:51:27;;;;;;;15.15;9.85;;;;;;;;;;5108192;28;20040;-60
2023/06/14 00:53:54;;;;;;;13.90;9.30;;;;;;;;;;5112829;28;20019;-60
2023/06/14 00:56:21;;;;;;;13.45;9.73;;;;;;;;;;5115785;28;20470;-60
2023/06/14 00:58:48;;;;;;;17.58;10.10;;;;;;;;;;5115794;28;20549;-60
2023/06/14 01:01:15;;;;;;;13.52;9.25;;;;;;;;;;5103472;28;20032;-60
2023/06/14 01:03:42;;;;;;;14.57;10.80;;;;;;;;;;5095681;28;20479;-60
2023/06/14 01:06:26;;;;;;;13.75;8.52;;;;;;;;;;5093539;28;20496;-60
2023/06/14 01:09:28;;;;;;;13.43;9.85;;;;;;;;;;5090387;28;20020;-60
2023/06/14 01:12:00;;;;;;;14.48;10.40;;;;;;;;;;5000239;28;20392;-61
2023/06/14 01:14:28;;;;;;;16.75;9.55;;;;;;;;;;5094384;28;20036;-60
2023/06/14 01:16:55;;;;;;;15.00;9.40;;;;;;;;;;5113356;28;20027;-61
2023/06/14 01:19:27;;;;;;;16.60;10.43;;;;;;;;;;5115092;28;20102;-61
2023/06/14 01:21:57;;;;;;;12.85;9.80;;;;;;;;;;5105376;28;20017;-61
2023/06/14 01:24:25;;;;;;;16.48;10.13;;;;;;;;;;5095012;28;20540;-61
2023/06/14 01:26:55;;;;;;;15.25;10.05;;;;;;;;;;5094843;28;20031;-60
2023/06/14 01:29:27;;;;;;;13.82;10.45;;;;;;;;;;5091659;28;20040;-60
2023/06/14 01:31:55;;;;;;;13.73;9.63;;;;;;;;;;5094797;28;20182;-60
2023/06/14 01:34:21;;;;;;;18.35;10.77;;;;;;;;;;5109916;28;20023;-60
2023/06/14 01:36:49;;;;;;;15.52;9.95;;;;;;;;;;5110095;28;20076;-61
2023/06/14 01:39:16;;;;;;;20.08;10.38;;;;;;;;;;5112684;28;20062;-60
2023/06/14 01:41:44;;;;;;;10.52;8.68;;;;;;;;;;5114110;28;20073;-62
2023/06/14 01:44:13;;;;;;;20.08;10.77;;;;;;;;;;5094363;28;20566;-60
2023/06/14 01:46:41;;;;;;;16.52;10.57;;;;;;;;;;5094684;28;20024;-61
2023/06/14 01:49:08;;;;;;;11.70;8.93;;;;;;;;;;5093960;28;20016;-61
2023/06/14 01:51:38;;;;;;;14.73;9.45;;;;;;;;;;5091812;28;20032;-61
2023/06/14 01:54:05;;;;;;;16.15;9.57;;;;;;;;;;5103083;28;20081;-61
2023/06/14 01:56:32;;;;;;;12.07;9.35;;;;;;;;;;5110051;28;20115;-61
2023/06/14 01:58:59;;;;;;;13.73;9.68;;;;;;;;;;5109504;28;20072;-61
2023/06/14 02:01:26;;;;;;;13.18;11.15;;;;;;;;;;5111192;28;20015;-60
2023/06/14 02:03:53;;;;;;;24.88;10.45;;;;;;;;;;5106089;28;20149;-59
2023/06/14 02:06:20;;;;;;;13.57;9.13;;;;;;;;;;5094223;28;20043;-60
2023/06/14 02:08:50;;;;;;;16.23;9.95;;;;;;;;;;5094247;28;20084;-61
2023/06/14 02:11:17;;;;;;;15.32;10.55;;;;;;;;;;5093610;28;20493;-61
2023/06/14 02:13:44;;;;;;;14.75;10.77;;;;;;;;;;5093419;28;20035;-61
2023/06/14 02:16:11;;;;;;;16.20;10.80;;;;;;;;;;5107144;28;20027;-62
2023/06/14 02:18:38;;;;;;;15.70;10.83;;;;;;;;;;5109355;28;20032;-60
2023/06/14 02:21:04;;;;;;;14.00;10.00;;;;;;;;;;5109460;28;20031;-60
2023/06/14 02:23:32;;;;;;;12.97;9.33;;;;;;;;;;5109887;28;20369;-60
2023/06/14 02:25:58;;;;;;;16.87;9.83;;;;;;;;;;5108417;28;20028;-60
2023/06/14 02:28:25;;;;;;;15.63;9.97;;;;;;;;;;5099575;28;20482;-60
2023/06/14 02:30:52;;;;;;;13.50;9.27;;;;;;;;;;5093073;28;20108;-61
2023/06/14 02:33:19;;;;;;;16.40;10.03;;;;;;;;;;5093708;28;20348;-61
2023/06/14 02:35:47;;;;;;;13.07;9.67;;;;;;;;;;5093085;28;20030;-60
2023/06/14 02:38:14;;;;;;;19.33;9.93;;;;;;;;;;5089797;28;20036;-60
2023/06/14 02:40:43;;;;;;;15.00;10.63;;;;;;;;;;5088695;28;20035;-61
2023/06/14 02:43:10;;;;;;;14.23;9.37;;;;;;;;;;5088586;28;20018;-61
2023/06/14 02:45:37;;;;;;;18.30;10.77;;;;;;;;;;5088603;28;20027;-60
2023/06/14 02:48:04;;;;;;;14.13;10.03;;;;;;;;;;5095704;28;20038;-60
2023/06/14 02:50:31;;;;;;;13.93;10.30;;;;;;;;;;5113094;28;20027;-60
2023/06/14 02:52:58;;;;;;;13.87;9.87;;;;;;;;;;5113539;28;20098;-60
2023/06/14 02:55:26;;;;;;;16.33;11.10;;;;;;;;;;5113826;28;20031;-60
2023/06/14 02:57:53;;;;;;;15.77;11.80;;;;;;;;;;5113472;28;20059;-60
2023/06/14 03:00:20;;;;;;;16.90;10.43;;;;;;;;;;5104962;28;20027;-60
2023/06/14 03:02:47;;;;;;;14.37;10.90;;;;;;;;;;5108803;28;20035;-61
2023/06/14 03:05:14;;;;;;;17.93;9.67;;;;;;;;;;5108537;28;20024;-60
2023/06/14 03:07:40;;;;;;;24.40;11.63;;;;;;;;;;5108763;28;20024;-60
2023/06/14 03:10:09;;;;;;;15.33;11.53;;;;;;;;;;5100657;28;20619;-60
2023/06/14 03:12:36;;;;;;;15.50;10.33;;;;;;;;;;5091934;28;20114;-60
2023/06/14 03:15:03;;;;;;;19.17;12.77;;;;;;;;;;5092715;28;20122;-60
2023/06/14 03:17:33;;;;;;;17.83;11.83;;;;;;;;;;5092663;28;20032;-60
2023/06/14 03:20:00;;;;;;;14.73;10.43;;;;;;;;;;5102672;28;20027;-60
2023/06/14 03:22:28;;;;;;;22.00;13.27;;;;;;;;;;5089254;28;20479;-59
2023/06/14 03:24:55;;;;;;;18.37;11.53;;;;;;;;;;5087996;28;20398;-60
2023/06/14 03:27:22;;;;;;;19.17;12.83;;;;;;;;;;5087696;28;20359;-59
2023/06/14 03:29:49;;;;;;;19.57;13.53;;;;;;;;;;5098022;28;20028;-60
2023/06/14 03:32:16;;;;;;;15.03;11.77;;;;;;;;;;5110857;28;20369;-59
2023/06/14 03:34:44;;;;;;;16.97;12.77;;;;;;;;;;5113160;28;20089;-61
2023/06/14 03:37:12;;;;;;;20.60;12.60;;;;;;;;;;5112908;28;20478;-61
2023/06/14 03:39:45;;;;;;;22.27;11.30;;;;;;;;;;5107717;28;20028;-59
2023/06/14 03:42:14;;;;;;;17.08;12.38;;;;;;;;;;5092573;28;20489;-59
2023/06/14 03:44:40;;;;;;;20.50;12.60;;;;;;;;;;5089250;28;20115;-60
2023/06/14 03:47:07;;;;;;;14.90;12.03;;;;;;;;;;5087045;28;20020;-59
2023/06/14 03:49:34;;;;;;;14.10;11.23;;;;;;;;;;5087974;28;20038;-59
2023/06/14 03:52:02;;;;;;;15.00;11.20;;;;;;;;;;5087570;28;20039;-60
2023/06/14 03:54:29;;;;;;;19.10;13.20;;;;;;;;;;5089445;28;20024;-60
2023/06/14 03:56:56;;;;;;;19.43;11.77;;;;;;;;;;5092405;28;20035;-60
2023/06/14 03:59:23;;;;;;;15.50;11.97;;;;;;;;;;5092386;28;20035;-60
2023/06/14 04:01:50;;;;;;;20.53;13.33;;;;;;;;;;5107234;28;20474;-60
2023/06/14 04:04:18;;;;;;;19.37;12.97;;;;;;;;;;5112456;28;20040;-60
2023/06/14 04:06:48;;;;;;;16.17;11.47;;;;;;;;;;5110077;28;20034;-60
2023/06/14 04:09:14;;;;;;;18.20;12.13;;;;;;;;;;5107693;28;20027;-60
2023/06/14 04:11:41;;;;;;;18.60;12.77;;;;;;;;;;5096921;28;20431;-60
2023/06/14 04:14:08;;;;;;;24.87;12.87;;;;;;;;;;5087214;28;20584;-61
2023/06/14 04:16:35;;;;;;;15.93;10.77;;;;;;;;;;5088396;28;20047;-60
2023/06/14 04:19:01;;;;;;;14.17;11.87;;;;;;;;;;5091886;28;20024;-60
2023/06/14 04:21:29;;;;;;;17.97;9.63;;;;;;;;;;5095482;28;20462;-61
2023/06/14 04:23:55;;;;;;;17.93;11.77;;;;;;;;;;5114407;28;20035;-59
2023/06/14 04:26:29;;;;;;;28.53;12.27;;;;;;;;;;5116436;28;20466;-60
2023/06/14 04:29:01;;;;;;;15.50;10.93;;;;;;;;;;5115025;28;20058;-60
2023/06/14 04:31:33;;;;;;;28.10;11.70;;;;;;;;;;5111418;28;20153;-61
2023/06/14 04:34:00;;;;;;;16.67;12.00;;;;;;;;;;5109705;28;20034;-59
2023/06/14 04:36:27;;;;;;;15.27;10.10;;;;;;;;;;5111592;28;20497;-60
2023/06/14 04:38:54;;;;;;;16.73;11.80;;;;;;;;;;5111852;28;20039;-60
2023/06/14 04:41:30;;;;;;;17.37;9.10;;;;;;;;;;5115937;28;20020;-59
2023/06/14 04:44:03;;;;;;;17.17;12.20;;;;;;;;;;5103577;28;20036;-61
2023/06/14 04:46:31;;;;;;;13.03;10.07;;;;;;;;;;5095806;28;20085;-59
2023/06/14 04:49:02;;;;;;;17.13;11.23;;;;;;;;;;5095436;28;20387;-60
2023/06/14 04:51:33;;;;;;;13.10;9.27;;;;;;;;;;5093868;28;20035;-61
2023/06/14 04:54:01;;;;;;;11.03;8.97;;;;;;;;;;5092691;28;20032;-61
2023/06/14 04:56:29;;;;;;;13.00;10.93;;;;;;;;;;5092122;28;20028;-60
2023/06/14 04:58:56;;;;;;;24.30;12.80;;;;;;;;;;5090773;28;20024;-60
2023/06/14 05:01:23;;;;;;;17.80;12.07;;;;;;;;;;5102462;28;20028;-59
2023/06/14 05:03:50;;;;;;;21.13;13.03;;;;;;;;;;5116155;28;20421;-59
2023/06/14 05:06:17;;;;;;;18.90;11.83;;;;;;;;;;5109759;28;20026;-59
2023/06/14 05:08:44;;;;;;;15.90;9.73;;;;;;;;;;5095260;28;20482;-59
2023/06/14 05:11:11;;;;;;;18.30;12.70;;;;;;;;;;5094982;28;20429;-58
2023/06/14 05:13:39;;;;;;;16.23;10.77;;;;;;;;;;5094386;28;20115;-61
2023/06/14 05:16:06;;;;;;;13.73;9.03;;;;;;;;;;5090853;28;20060;-61
2023/06/14 05:18:35;;;;;;;17.63;11.17;;;;;;;;;;5098780;28;21015;-60
2023/06/14 05:21:03;;;;;;;15.23;12.10;;;;;;;;;;5090067;28;20028;-60
2023/06/14 05:23:30;;;;;;;16.97;11.93;;;;;;;;;;5090148;28;20036;-60
2023/06/14 05:25:57;;;;;;;16.97;12.33;;;;;;;;;;5094879;28;20024;-59
2023/06/14 05:28:24;;;;;;;14.17;11.17;;;;;;;;;;5108956;28;20435;-59
2023/06/14 05:30:51;;;;;;;14.70;10.30;;;;;;;;;;5114964;28;20080;-60
2023/06/14 05:33:18;;;;;;;12.60;9.63;;;;;;;;;;5115156;28;20031;-60
2023/06/14 05:35:45;;;;;;;18.03;10.67;;;;;;;;;;5114344;28;20141;-60
2023/06/14 05:38:12;;;;;;;18.13;11.63;;;;;;;;;;5101665;28;20047;-60
2023/06/14 05:40:39;;;;;;;13.53;9.60;;;;;;;;;;5089887;28;20047;-60
2023/06/14 05:43:05;;;;;;;15.47;10.60;;;;;;;;;;5089665;28;20027;-59
2023/06/14 05:45:32;;;;;;;19.27;13.70;;;;;;;;;;5089868;28;20028;-59
2023/06/14 05:47:59;;;;;;;15.80;12.13;;;;;;;;;;5094386;28;20081;-59
2023/06/14 05:50:26;;;;;;;12.13;9.87;;;;;;;;;;5096054;28;20039;-60
2023/06/14 05:52:52;;;;;;;19.63;12.43;;;;;;;;;;5094424;28;20116;-60
2023/06/14 05:55:19;;;;;;;22.57;10.73;;;;;;;;;;5094417;28;20027;-59
2023/06/14 05:57:47;;;;;;;15.50;10.57;;;;;;;;;;5094337;28;20030;-59
2023/06/14 06:00:15;;;;;;;13.97;11.10;;;;;;;;;;5092122;28;20101;-60
2023/06/14 06:02:43;;;;;;;26.27;13.07;;;;;;;;;;5089611;28;20081;-60
2023/06/14 06:05:10;;;;;;;19.97;12.83;;;;;;;;;;5089268;28;20035;-60
2023/06/14 06:07:37;;;;;;;18.77;11.70;;;;;;;;;;5089462;28;20032;-60
2023/06/14 06:10:05;;;;;;;17.00;10.77;;;;;;;;;;5092994;28;20489;-60
2023/06/14 06:12:32;;;;;;;11.43;9.50;;;;;;;;;;5092649;28;20031;-60
2023/06/14 06:15:00;;;;;;;15.03;9.87;;;;;;;;;;5084161;28;20460;-60
2023/06/14 06:17:27;;;;;;;15.23;10.57;;;;;;;;;;5086367;28;20413;-59
2023/06/14 06:19:53;;;;;;;23.70;13.03;;;;;;;;;;5099235;28;20373;-60
2023/06/14 06:22:20;;;;;;;15.33;10.60;;;;;;;;;;5088817;28;20024;-60
2023/06/14 06:24:47;;;;;;;20.70;10.70;;;;;;;;;;5087867;28;20039;-59
2023/06/14 06:27:15;;;;;;;13.73;9.67;;;;;;;;;;5088015;28;20016;-59
2023/06/14 06:29:48;;;;;;;16.57;11.43;;;;;;;;;;5089446;28;20099;-60
2023/06/14 06:32:15;;;;;;;22.53;13.13;;;;;;;;;;5108090;28;20769;-59
2023/06/14 06:34:42;;;;;;;16.57;11.57;;;;;;;;;;5093540;28;20028;-59
2023/06/14 06:37:09;;;;;;;18.03;11.53;;;;;;;;;;5089306;28;20024;-59
2023/06/14 06:39:36;;;;;;;27.43;11.60;;;;;;;;;;5073410;28;20103;-59
2023/06/14 06:42:02;;;;;;;14.77;10.97;;;;;;;;;;5111098;28;20055;-59
2023/06/14 06:44:29;;;;;;;18.87;12.70;;;;;;;;;;5111659;28;20022;-60
2023/06/14 06:46:56;;;;;;;12.87;9.97;;;;;;;;;;5108415;28;20030;-59
2023/06/14 06:49:23;;;;;;;17.07;10.37;;;;;;;;;;5108715;28;20088;-59
2023/06/14 06:52:02;;;;;;;15.77;11.33;;;;;;;;;;5106235;28;20043;-60
2023/06/14 06:54:29;;;;;;;17.70;9.83;;;;;;;;;;5110445;28;20028;-59
2023/06/14 06:56:55;;;;;;;24.13;13.60;;;;;;;;;;5113803;28;20059;-59
2023/06/14 06:59:22;;;;;;;17.77;12.37;;;;;;;;;;5113866;28;20034;-59
2023/06/14 07:01:49;;;;;;;15.27;11.23;;;;;;;;;;5110920;28;20716;-59
2023/06/14 07:04:16;;;;;;;18.53;12.87;;;;;;;;;;5113520;28;20098;-59
2023/06/14 07:06:43;;;;;;;18.10;9.47;;;;;;;;;;5112033;28;20555;-59
2023/06/14 07:09:14;;;;;;;16.53;10.97;;;;;;;;;;5108144;28;20019;-59
2023/06/14 07:11:41;;;;;;;10.30;7.90;;;;;;;;;;5105953;28;20062;-59
2023/06/14 07:14:08;;;;;;;18.27;11.77;;;;;;;;;;5107996;28;20016;-59
2023/06/14 07:16:35;;;;;;;20.37;12.73;;;;;;;;;;5108950;28;20106;-59
2023/06/14 07:19:05;;;;;;;18.47;13.27;;;;;;;;;;5113075;28;20022;-59
2023/06/14 07:21:32;;;;;;;21.87;10.97;;;;;;;;;;5112768;28;20106;-59
2023/06/14 07:23:59;;;;;;;20.27;10.70;;;;;;;;;;5072851;28;20020;-59
2023/06/14 07:26:26;;;;;;;18.13;12.63;;;;;;;;;;5072698;28;20035;-59
2023/06/14 07:28:53;;;;;;;18.93;10.97;;;;;;;;;;5071616;28;20475;-59
2023/06/14 07:31:19;;;;;;;17.83;12.40;;;;;;;;;;5067148;28;20040;-59
2023/06/14 07:33:46;;;;;;;22.67;11.33;;;;;;;;;;5096368;28;20055;-59
2023/06/14 07:36:13;;;;;;;28.97;12.30;;;;;;;;;;5107519;28;20016;-60
2023/06/14 07:38:40;;;;;;;16.30;11.60;;;;;;;;;;5107648;28;20023;-59
2023/06/14 07:41:07;;;;;;;17.03;11.83;;;;;;;;;;5112999;28;20086;-60
2023/06/14 07:43:34;;;;;;;18.03;10.43;;;;;;;;;;5103727;28;20580;-59
2023/06/14 07:46:02;;;;;;;14.03;10.07;;;;;;;;;;5092515;28;20032;-59
2023/06/14 07:48:29;;;;;;;20.77;12.03;;;;;;;;;;5092323;28;20032;-59
2023/06/14 07:50:55;;;;;;;16.83;12.57;;;;;;;;;;5092475;28;20154;-59
2023/06/14 07:53:22;;;;;;;15.40;11.03;;;;;;;;;;5088270;28;20031;-59
2023/06/14 07:55:50;;;;;;;13.37;10.70;;;;;;;;;;5087205;28;20111;-59
2023/06/14 07:58:17;;;;;;;18.67;9.50;;;;;;;;;;5086706;28;20039;-59
2023/06/14 08:00:44;;;;;;;18.60;10.00;;;;;;;;;;5086963;28;20020;-59
2023/06/14 08:03:10;;;;;;;14.93;10.80;;;;;;;;;;5091679;28;20370;-59
2023/06/14 08:05:37;;;;;;;16.40;10.27;;;;;;;;;;5108860;28;20474;-59
2023/06/14 08:08:04;;;;;;;15.33;11.27;;;;;;;;;;5112720;28;20054;-59
2023/06/14 08:10:31;;;;;;;19.43;11.17;;;;;;;;;;5112505;28;20186;-58
2023/06/14 08:12:58;;;;;;;15.77;11.07;;;;;;;;;;5112242;28;20015;-59
2023/06/14 08:15:25;;;;;;;14.93;11.20;;;;;;;;;;5106040;28;20070;-59
2023/06/14 08:17:52;;;;;;;16.07;11.20;;;;;;;;;;5107516;28;20093;-59
2023/06/14 08:20:18;;;;;;;16.33;11.07;;;;;;;;;;5107474;28;20370;-59
2023/06/14 08:22:48;;;;;;;17.00;11.37;;;;;;;;;;5107273;28;20042;-59
2023/06/14 08:25:14;;;;;;;15.37;11.10;;;;;;;;;;5108386;28;20032;-59
2023/06/14 08:27:41;;;;;;;15.03;10.83;;;;;;;;;;5112447;28;20416;-59
2023/06/14 08:30:08;;;;;;;20.97;11.37;;;;;;;;;;5112356;28;20023;-59
2023/06/14 08:32:35;;;;;;;13.50;9.43;;;;;;;;;;5112486;28;20024;-59
2023/06/14 08:35:02;;;;;;;17.00;11.03;;;;;;;;;;5110515;28;20027;-59
2023/06/14 08:37:29;;;;;;;18.60;10.87;;;;;;;;;;5102982;28;20410;-59
2023/06/14 08:39:56;;;;;;;15.37;11.20;;;;;;;;;;5086705;28;20071;-59
2023/06/14 08:42:25;;;;;;;13.57;10.30;;;;;;;;;;5086871;28;20024;-59
2023/06/14 08:44:52;;;;;;;14.47;11.03;;;;;;;;;;5086759;28;20497;-59
2023/06/14 08:47:20;;;;;;;11.63;9.30;;;;;;;;;;5103257;28;20020;-59
2023/06/14 08:49:48;;;;;;;15.77;11.13;;;;;;;;;;5112759;28;20402;-59
2023/06/14 08:52:18;;;;;;;14.57;10.00;;;;;;;;;;5112351;28;20803;-59
2023/06/14 08:54:48;;;;;;;12.57;9.63;;;;;;;;;;5112123;28;20028;-59
2023/06/14 08:57:16;;;;;;;37.10;11.50;;;;;;;;;;5109694;28;20032;-59
2023/06/14 08:59:48;;;;;;;19.63;11.33;;;;;;;;;;5109136;28;20058;-59
2023/06/14 09:02:17;;;;;;;16.10;10.23;;;;;;;;;;5106760;28;20388;-59
2023/06/14 09:04:44;;;;;;;13.23;9.33;;;;;;;;;;5106582;28;20496;-59
2023/06/14 09:07:12;;;;;;;13.80;9.30;;;;;;;;;;5104483;28;20123;-59
2023/06/14 09:09:40;;;;;;;16.60;10.73;;;;;;;;;;5110289;28;20066;-59
2023/06/14 09:12:10;;;;;;;20.17;11.67;;;;;;;;;;5115722;28;20039;-60
2023/06/14 09:14:39;;;;;;;12.43;10.23;;;;;;;;;;5115549;28;20485;-59
2023/06/14 09:17:06;;;;;;;23.27;12.40;;;;;;;;;;5113808;28;20098;-59
2023/06/14 09:19:35;;;;;;;32.73;11.17;;;;;;;;;;5115417;28;20031;-58
2023/06/14 09:22:04;;;;;;;17.53;10.23;;;;;;;;;;5112931;28;20022;-59
2023/06/14 09:24:30;;;;;;;15.27;9.63;;;;;;;;;;5110436;28;20046;-59
2023/06/14 09:26:58;;;;;;;14.60;10.87;;;;;;;;;;5108126;28;20082;-58
2023/06/14 09:29:26;;;;;;;17.60;10.90;;;;;;;;;;5110051;28;20067;-59
2023/06/14 09:31:53;;;;;;;22.80;12.10;;;;;;;;;;5111998;28;20363;-59
2023/06/14 09:34:23;;;;;;;17.37;11.30;;;;;;;;;;5115247;28;20011;-59
2023/06/14 09:36:50;;;;;;;15.60;10.67;;;;;;;;;;5113964;28;20016;-59
2023/06/14 09:39:20;;;;;;;16.80;12.83;;;;;;;;;;5096189;28;20607;-59
2023/06/14 09:41:46;;;;;;;13.27;9.97;;;;;;;;;;5094763;28;20066;-59
2023/06/14 09:44:13;;;;;;;19.67;13.37;;;;;;;;;;5092378;28;20032;-59
2023/06/14 09:46:40;;;;;;;16.73;12.07;;;;;;;;;;5089603;28;20032;-59
2023/06/14 09:49:07;;;;;;;16.33;10.87;;;;;;;;;;5104518;28;20474;-59
2023/06/14 09:51:35;;;;;;;12.90;9.17;;;;;;;;;;5109738;28;20043;-59
2023/06/14 09:54:05;;;;;;;13.30;9.40;;;;;;;;;;5111151;28;20022;-58
2023/06/14 09:56:39;;;;;;;12.77;8.57;;;;;;;;;;5114934;28;20021;-58
2023/06/14 09:59:09;;;;;;;20.97;9.93;;;;;;;;;;5112668;28;20023;-59
2023/06/14 10:01:37;;;;;;;20.33;12.10;;;;;;;;;;5115041;28;20027;-58
2023/06/14 10:04:05;;;;;;;17.60;11.40;;;;;;;;;;5114801;28;20102;-59
2023/06/14 10:06:32;;;;;;;25.50;11.83;;;;;;;;;;5111838;28;20256;-60
2023/06/14 10:09:00;;;;;;;13.10;10.17;;;;;;;;;;5102476;28;20107;-59
2023/06/14 10:11:27;;;;;;;13.10;9.73;;;;;;;;;;5089131;28;20494;-59
2023/06/14 10:13:55;;;;;;;14.60;10.63;;;;;;;;;;5089060;28;20031;-59
2023/06/14 10:16:25;;;;;;;13.53;10.23;;;;;;;;;;5090061;28;20028;-59
2023/06/14 10:18:52;;;;;;;15.80;9.67;;;;;;;;;;5095435;28;20050;-61
2023/06/14 10:21:37;;;;;;;13.47;9.90;;;;;;;;;;5093786;28;20020;-59
2023/06/14 10:24:06;;;;;;;17.58;12.18;;;;;;;;;;5094212;28;20539;-59
2023/06/14 10:26:32;;;;;;;18.23;11.80;;;;;;;;;;5094002;28;20028;-59
2023/06/14 10:29:08;;;;;;;21.03;13.57;;;;;;;;;;5092929;28;20036;-59
2023/06/14 10:31:42;;;;;;;16.80;12.87;;;;;;;;;;5109062;28;20201;-59
2023/06/14 10:34:09;;;;;;;21.27;12.50;;;;;;;;;;5108912;28;20122;-59
2023/06/14 10:36:36;;;;;;;30.90;13.87;;;;;;;;;;5108853;28;20058;-59
2023/06/14 10:39:15;;;;;;;14.40;10.43;;;;;;;;;;5091920;28;20020;-59
2023/06/14 10:41:42;;;;;;;19.37;12.07;;;;;;;;;;5093720;28;20133;-59
2023/06/14 10:44:12;;;;;;;30.00;14.77;;;;;;;;;;5093609;28;20125;-59
2023/06/14 10:46:39;;;;;;;21.90;13.27;;;;;;;;;;5093331;28;20347;-59
2023/06/14 10:49:06;;;;;;;21.13;11.07;;;;;;;;;;5093470;28;20023;-59
2023/06/14 10:51:49;;;;;;;20.97;13.03;;;;;;;;;;5090726;28;20085;-59
2023/06/14 10:54:16;;;;;;;28.33;14.23;;;;;;;;;;5107582;28;20019;-59
2023/06/14 10:56:54;;;;;;;14.73;10.47;;;;;;;;;;5108263;28;20449;-58
2023/06/14 10:59:21;;;;;;;12.47;9.53;;;;;;;;;;5108386;28;20028;-59
2023/06/14 11:02:08;;;;;;;18.80;11.00;;;;;;;;;;5111051;28;20466;-59
2023/06/14 11:04:47;;;;;;;18.43;12.23;;;;;;;;;;5111246;28;20016;-59
2023/06/14 11:07:37;;;;;;;19.40;13.03;;;;;;;;;;5113213;28;20535;-59
2023/06/14 11:10:10;;;;;;;20.33;12.83;;;;;;;;;;5100509;28;20401;-59
2023/06/14 11:12:37;;;;;;;14.57;11.07;;;;;;;;;;5113631;28;20028;-59
2023/06/14 11:15:06;;;;;;;18.17;12.80;;;;;;;;;;5108431;28;20031;-59
2023/06/14 11:17:33;;;;;;;10.73;8.67;;;;;;;;;;5105977;28;20023;-59
2023/06/14 11:20:10;;;;;;;14.40;11.63;;;;;;;;;;5108079;28;20034;-59
2023/06/14 11:22:42;;;;;;;17.33;12.50;;;;;;;;;;5107957;28;20053;-59
2023/06/14 11:25:15;;;;;;;15.37;12.20;;;;;;;;;;5112618;28;20470;-59
2023/06/14 11:27:45;;;;;;;19.90;13.77;;;;;;;;;;5112979;28;20106;-59
2023/06/14 11:30:13;;;;;;;15.17;11.50;;;;;;;;;;5110540;28;20055;-59
2023/06/14 11:32:40;;;;;;;19.37;14.47;;;;;;;;;;5112126;28;20034;-60
2023/06/14 11:35:08;;;;;;;19.07;12.43;;;;;;;;;;5072581;28;20585;-58
2023/06/14 11:37:41;;;;;;;20.83;14.17;;;;;;;;;;5067361;28;20395;-59
2023/06/14 11:40:09;;;;;;;15.83;12.17;;;;;;;;;;5067129;28;20035;-59
2023/06/14 11:42:37;;;;;;;18.07;12.27;;;;;;;;;;5093321;28;20050;-59
2023/06/14 11:45:05;;;;;;;21.63;12.23;;;;;;;;;;5107342;28;20024;-59
2023/06/14 11:47:35;;;;;;;19.30;13.33;;;;;;;;;;5111927;28;20134;-59
2023/06/14 11:50:02;;;;;;;13.63;10.63;;;;;;;;;;5112864;28;20027;-59
2023/06/14 11:52:29;;;;;;;14.60;10.50;;;;;;;;;;5112908;28;20386;-58
2023/06/14 11:54:57;;;;;;;14.07;10.30;;;;;;;;;;5101662;28;20054;-58
2023/06/14 11:57:23;;;;;;;21.90;9.30;;;;;;;;;;5092419;28;20146;-59
2023/06/14 11:59:50;;;;;;;8.03;6.63;;;;;;;;;;5087629;28;20032;-59
2023/06/14 12:02:17;;;;;;;16.67;11.97;;;;;;;;;;5087151;28;20021;-59
2023/06/14 12:04:50;;;;;;;16.10;12.33;;;;;;;;;;5086735;28;20131;-59
2023/06/14 12:07:19;;;;;;;18.07;12.60;;;;;;;;;;5087957;28;20036;-59
2023/06/14 12:09:55;;;;;;;16.10;11.60;;;;;;;;;;5091033;28;20032;-58
2023/06/14 12:12:25;;;;;;;14.20;11.90;;;;;;;;;;5092096;28;20040;-59
2023/06/14 12:14:52;;;;;;;11.33;7.63;;;;;;;;;;5092229;28;20078;-59
2023/06/14 12:17:19;;;;;;;17.20;11.93;;;;;;;;;;5093656;28;20050;-59
2023/06/14 12:19:47;;;;;;;16.23;9.60;;;;;;;;;;5092322;28;20032;-59
2023/06/14 12:22:14;;;;;;;16.10;10.83;;;;;;;;;;5087443;28;20020;-59
2023/06/14 12:24:44;;;;;;;38.80;13.47;;;;;;;;;;5086970;28;20024;-59
2023/06/14 12:27:15;;;;;;;20.70;12.37;;;;;;;;;;5088474;28;20110;-59
2023/06/14 12:29:45;;;;;;;14.60;9.83;;;;;;;;;;5086723;28;20036;-59
2023/06/14 12:32:12;;;;;;;18.33;14.10;;;;;;;;;;5091020;28;20095;-59
2023/06/14 12:34:40;;;;;;;20.53;12.90;;;;;;;;;;5092247;28;20020;-58
2023/06/14 12:37:07;;;;;;;16.90;11.93;;;;;;;;;;5092126;28;20032;-59
2023/06/14 12:39:34;;;;;;;22.73;13.50;;;;;;;;;;5094157;28;20028;-59
2023/06/14 12:42:03;;;;;;;22.80;15.13;;;;;;;;;;5092080;28;20028;-58
2023/06/14 12:44:30;;;;;;;20.97;12.63;;;;;;;;;;5089663;28;20056;-59
2023/06/14 12:46:57;;;;;;;15.53;11.30;;;;;;;;;;5090599;28;20050;-59
2023/06/14 12:49:24;;;;;;;19.37;12.37;;;;;;;;;;5091956;28;20032;-59
2023/06/14 12:51:51;;;;;;;16.70;10.87;;;;;;;;;;5090490;28;20040;-59
2023/06/14 12:54:18;;;;;;;43.67;15.87;;;;;;;;;;5094117;28;20050;-58
2023/06/14 12:56:45;;;;;;;15.20;9.47;;;;;;;;;;5095556;28;20080;-59
2023/06/14 12:59:11;;;;;;;15.17;9.23;;;;;;;;;;5103770;28;20032;-59
2023/06/14 13:01:39;;;;;;;12.97;9.73;;;;;;;;;;5115921;28;20043;-59
2023/06/14 13:04:06;;;;;;;13.37;11.07;;;;;;;;;;5116184;28;20015;-58
2023/06/14 13:06:33;;;;;;;14.23;10.67;;;;;;;;;;5111997;28;20028;-59
2023/06/14 13:09:01;;;;;;;14.83;9.87;;;;;;;;;;5108426;28;20020;-59
2023/06/14 13:11:28;;;;;;;14.07;9.83;;;;;;;;;;5069856;28;20396;-59
2023/06/14 13:13:55;;;;;;;18.13;9.40;;;;;;;;;;5069876;28;20032;-59
2023/06/14 13:16:21;;;;;;;16.27;11.40;;;;;;;;;;5072722;28;20068;-59
2023/06/14 13:18:48;;;;;;;25.13;10.30;;;;;;;;;;5075114;28;20030;-59
2023/06/14 13:21:15;;;;;;;15.37;11.57;;;;;;;;;;5095736;28;20032;-59
2023/06/14 13:23:42;;;;;;;20.17;9.93;;;;;;;;;;5094949;28;20413;-59
2023/06/14 13:26:09;;;;;;;19.33;10.73;;;;;;;;;;5095282;28;20020;-60
2023/06/14 13:28:36;;;;;;;20.33;10.80;;;;;;;;;;5092109;28;20032;-59
2023/06/14 13:31:03;;;;;;;15.87;9.90;;;;;;;;;;5093008;28;20047;-59
2023/06/14 13:33:30;;;;;;;16.47;9.20;;;;;;;;;;5089934;28;20039;-59
2023/06/14 13:35:57;;;;;;;14.30;10.37;;;;;;;;;;5089826;28;20077;-60
2023/06/14 13:38:23;;;;;;;15.60;9.20;;;;;;;;;;5091645;28;20047;-59
2023/06/14 13:40:50;;;;;;;11.97;8.87;;;;;;;;;;5101403;28;20019;-59
2023/06/14 13:43:17;;;;;;;17.20;10.27;;;;;;;;;;5115336;28;20351;-59
2023/06/14 13:45:44;;;;;;;11.00;7.23;;;;;;;;;;5115193;28;20031;-59
2023/06/14 13:48:11;;;;;;;13.97;9.37;;;;;;;;;;5115075;28;20020;-59
2023/06/14 13:50:38;;;;;;;18.77;10.83;;;;;;;;;;5111002;28;20075;-59
2023/06/14 13:53:05;;;;;;;15.20;10.30;;;;;;;;;;5069077;28;20539;-59
2023/06/14 13:55:32;;;;;;;16.90;10.07;;;;;;;;;;5068472;28;20085;-59
2023/06/14 13:57:59;;;;;;;10.93;8.43;;;;;;;;;;5068884;28;20456;-59
2023/06/14 14:00:26;;;;;;;15.77;10.43;;;;;;;;;;5070221;28;20119;-59
2023/06/14 14:02:54;;;;;;;10.67;8.53;;;;;;;;;;5093240;28;20028;-59
2023/06/14 14:05:25;;;;;;;14.63;10.23;;;;;;;;;;5094532;28;20020;-59
2023/06/14 14:07:52;;;;;;;16.57;8.80;;;;;;;;;;5094264;28;20044;-59
2023/06/14 14:10:20;;;;;;;12.00;9.57;;;;;;;;;;5094239;28;20016;-59
2023/06/14 14:12:47;;;;;;;17.23;9.13;;;;;;;;;;5103754;28;20036;-59
2023/06/14 14:15:14;;;;;;;15.23;9.83;;;;;;;;;;5108701;28;20103;-59
2023/06/14 14:17:41;;;;;;;18.57;11.50;;;;;;;;;;5109308;28;20037;-59
2023/06/14 14:20:08;;;;;;;36.37;12.10;;;;;;;;;;5109308;28;20024;-59
2023/06/14 14:22:35;;;;;;;19.50;12.83;;;;;;;;;;5103822;28;20061;-59
2023/06/14 14:25:02;;;;;;;15.53;12.13;;;;;;;;;;5094134;28;20036;-59
2023/06/14 14:27:29;;;;;;;21.60;12.63;;;;;;;;;;5093973;28;20020;-60